Time;durP1;ratioP1;P1;durP2;ratioP2;P2;SDS_P1;SDS_P2;PMS_P1;PMS_P2;Temp;Humidity;BMP_temperature;BMP_pressure;BME280_temperature;BME280_humidity;BME280_pressure;Samples;Min_cycle;Max_cycle;Signal;HPM_P1;HPM_P2
2022/06/04 00:01:23;;;;;;;10.32;4.35;;;;;;;11.75;71.80;100404.31;6125943;23;20021;-80
2022/06/04 00:03:49;;;;;;;8.38;4.75;;;;;;;11.71;71.66;100401.72;6124079;23;20018;-79
2022/06/04 00:06:15;;;;;;;9.45;4.22;;;;;;;11.53;71.58;100380.06;6123375;23;20097;-82
2022/06/04 00:08:41;;;;;;;12.10;4.72;;;;;;;11.45;71.46;100387.91;6100348;23;20452;-81
2022/06/04 00:16:37;;;;;;;8.40;4.40;;;;;;;11.42;71.38;100402.69;6153765;23;20104;-79
2022/06/04 00:19:03;;;;;;;8.77;4.53;;;;;;;11.22;71.80;100380.16;6128401;23;20100;-78
2022/06/04 00:21:29;;;;;;;11.82;4.75;;;;;;;11.36;71.55;100408.78;6126526;23;20014;-79
2022/06/04 00:23:56;;;;;;;9.60;5.88;;;;;;;11.27;71.68;100404.44;6125338;23;20466;-79
2022/06/04 00:26:22;;;;;;;13.07;4.93;;;;;;;10.99;71.44;100364.56;6128960;23;20178;-83
2022/06/04 00:28:49;;;;;;;9.35;4.85;;;;;;;11.26;71.48;100407.06;6128971;23;20053;-81
2022/06/04 00:31:18;;;;;;;14.88;6.00;;;;;;;11.09;71.35;100392.34;6128547;23;20064;-81
2022/06/04 00:33:46;;;;;;;10.90;6.80;;;;;;;11.05;71.67;100387.13;6135277;23;20022;-81
2022/06/04 00:36:12;;;;;;;8.20;5.07;;;;;;;11.06;71.77;100399.28;6151753;23;20009;-78
2022/06/04 00:38:38;;;;;;;14.07;7.70;;;;;;;11.09;71.87;100409.69;6151044;23;20006;-79
2022/06/04 00:41:20;;;;;;;10.35;6.07;;;;;;;10.95;72.01;100389.75;6152584;23;20013;-79
2022/06/04 00:44:34;;;;;;;22.92;14.25;;;;;;;10.74;72.06;100361.13;6176421;23;20036;-79
2022/06/04 00:47:27;;;;;;;18.73;9.80;;;;;;;10.91;72.37;100395.81;6094936;23;20486;-79
2022/06/04 00:49:54;;;;;;;25.80;15.27;;;;;;;10.98;72.03;100415.78;6131654;23;20017;-81
2022/06/04 00:52:22;;;;;;;12.27;5.63;;;;;;;10.94;72.24;100407.97;6135708;23;20100;-81
2022/06/04 00:54:52;;;;;;;11.88;6.93;;;;;;;10.89;72.46;100387.16;6145916;23;20029;-78
2022/06/04 00:57:36;;;;;;;14.17;7.63;;;;;;;10.95;72.19;100410.59;6148635;23;20060;-82
2022/06/04 01:00:28;;;;;;;9.55;5.05;;;;;;;10.82;72.46;100401.03;6124913;23;19998;-81
2022/06/04 01:03:11;;;;;;;9.85;5.25;;;;;;;10.96;72.32;100422.72;6094030;23;20363;-81
2022/06/04 01:05:53;;;;;;;7.72;5.32;;;;;;;10.92;72.61;100414.94;6164112;23;20021;-80
2022/06/04 01:09:07;;;;;;;21.40;10.70;;;;;;;10.78;72.47;100400.16;6104687;23;20038;-81
2022/06/04 01:12:11;;;;;;;10.18;6.15;;;;;;;10.87;72.37;100419.28;6082516;23;20017;-82
2022/06/04 01:15:01;;;;;;;16.88;7.65;;;;;;;10.85;72.83;100414.94;6097319;23;20018;-85
2022/06/04 01:17:45;;;;;;;;;;;;;;;10.85;72.74;100414.03;6135204;23;20028;-80
2022/06/04 01:21:08;;;;;;;12.35;5.97;;;;;;;10.84;72.67;100418.41;6107196;23;19940;-81
2022/06/04 01:23:49;;;;;;;13.68;6.65;;;;;;;10.82;72.71;100411.44;6156613;23;20025;-80
2022/06/04 01:26:46;;;;;;;11.15;7.63;;;;;;;10.83;73.05;100413.16;6157102;23;20029;-81
2022/06/04 01:29:19;;;;;;;12.10;5.53;;;;;;;10.69;72.74;100403.63;6133028;23;20010;-81
2022/06/04 01:32:05;;;;;;;16.88;6.07;;;;;;;10.82;73.30;100425.34;6106885;23;20017;-80
2022/06/04 01:34:40;;;;;;;10.90;5.32;;;;;;;10.83;73.37;100421.88;6157024;23;20017;-82
2022/06/04 01:37:45;;;;;;;10.98;5.53;;;;;;;10.66;73.31;100397.56;6130282;23;20108;-82
2022/06/04 01:43:14;;;;;;;19.65;5.45;;;;;;;10.43;73.50;100358.50;6131328;23;20183;-84
2022/06/04 01:45:51;;;;;;;13.93;5.00;;;;;;;10.70;73.31;100384.56;6131397;23;20084;-82
2022/06/04 01:48:19;;;;;;;10.27;5.20;;;;;;;10.98;73.09;100431.41;6155752;23;20013;-84
2022/06/04 01:50:54;;;;;;;10.05;4.90;;;;;;;10.75;72.87;100391.50;6132877;23;20088;-85
2022/06/04 01:53:40;;;;;;;9.55;5.30;;;;;;;10.68;73.12;100365.47;6160855;23;20141;-83
2022/06/04 01:56:29;;;;;;;10.07;4.45;;;;;;;10.91;73.20;100397.56;6159907;23;20013;-83
2022/06/04 01:59:01;;;;;;;10.50;4.68;;;;;;;11.19;72.71;100428.78;6135520;23;20032;-86
2022/06/04 02:01:32;;;;;;;15.02;4.80;;;;;;;11.17;72.80;100420.97;6104532;23;20120;-81
2022/06/04 02:04:07;;;;;;;6.10;4.18;;;;;;;11.27;72.81;100427.03;6154527;23;20357;-80
2022/06/04 02:06:38;;;;;;;7.32;4.80;;;;;;;11.39;72.55;100437.41;6129792;23;20014;-83
2022/06/04 02:09:26;;;;;;;6.85;4.00;;;;;;;11.25;72.39;100402.72;6130201;23;20519;-83
2022/06/04 02:11:55;;;;;;;8.18;4.90;;;;;;;11.42;72.43;100419.19;6132597;23;20510;-83
2022/06/04 02:14:24;;;;;;;8.95;4.70;;;;;;;11.65;72.25;100443.47;6159657;23;20017;-80
2022/06/04 02:17:02;;;;;;;17.77;4.60;;;;;;;11.72;71.91;100434.72;6160644;23;20017;-80
2022/06/04 02:19:28;;;;;;;10.63;4.18;;;;;;;11.73;72.02;100421.69;6133916;23;20025;-79
2022/06/04 02:21:54;;;;;;;7.93;4.28;;;;;;;11.87;72.03;100431.19;6133245;23;20363;-79
2022/06/04 02:24:21;;;;;;;7.93;4.10;;;;;;;11.88;71.74;100419.91;6143166;23;20027;-80
2022/06/04 02:26:47;;;;;;;8.00;3.78;;;;;;;11.96;71.66;100422.47;6119407;23;20016;-81
2022/06/04 02:29:14;;;;;;;14.50;4.50;;;;;;;12.03;71.33;100437.25;6142407;23;20067;-79
2022/06/04 02:32:05;;;;;;;9.23;4.03;;;;;;;11.96;71.28;100402.47;6163681;23;20068;-78
2022/06/04 02:34:46;;;;;;;7.82;3.80;;;;;;;12.21;70.98;100425.88;6087095;23;20024;-79
2022/06/04 02:37:22;;;;;;;7.90;3.70;;;;;;;12.17;70.76;100400.66;6130509;23;20355;-79
2022/06/04 02:40:09;;;;;;;9.25;4.07;;;;;;;12.45;70.70;100429.22;6104378;23;20108;-79
2022/06/04 02:42:55;;;;;;;9.77;4.32;;;;;;;12.51;70.23;100429.13;6105410;23;20013;-81
2022/06/04 02:45:30;;;;;;;5.93;3.60;;;;;;;12.48;70.06;100408.28;6154329;23;20099;-81
2022/06/04 02:48:13;;;;;;;6.38;3.30;;;;;;;12.63;70.01;100418.63;6129230;23;20013;-78
2022/06/04 02:50:45;;;;;;;;;;;;;;;12.79;69.73;100428.94;6135339;23;20017;-80
2022/06/04 02:53:13;;;;;;;12.25;3.50;;;;;;;12.66;69.70;100391.63;6162249;23;19913;-79
2022/06/04 02:55:46;;;;;;;8.15;3.72;;;;;;;12.89;69.31;100420.16;6131271;23;20028;-79
2022/06/04 02:58:16;;;;;;;7.50;3.67;;;;;;;13.05;69.11;100433.09;6105114;23;20333;-80
2022/06/04 03:00:44;;;;;;;7.15;3.67;;;;;;;13.15;68.82;100436.47;6103385;23;20116;-82
2022/06/04 03:03:14;;;;;;;6.25;3.42;;;;;;;13.18;68.71;100429.47;6154476;23;20025;-81
2022/06/04 03:05:54;;;;;;;8.13;3.30;;;;;;;13.32;68.85;100433.72;6155757;23;20045;-79
2022/06/04 03:08:21;;;;;;;5.32;3.15;;;;;;;13.42;68.45;100437.97;6085648;23;20013;-77
2022/06/04 03:10:50;;;;;;;5.88;3.13;;;;;;;13.49;68.39;100430.94;6165491;23;20088;-79
2022/06/04 03:13:16;;;;;;;6.18;3.30;;;;;;;13.53;68.12;100425.66;6133364;23;20109;-81
2022/06/04 03:15:42;;;;;;;6.25;3.70;;;;;;;13.47;67.71;100383.91;6160346;23;20017;-84
2022/06/04 03:18:09;;;;;;;8.82;3.75;;;;;;;13.81;67.55;100438.41;6156341;23;20048;-82
2022/06/04 03:20:35;;;;;;;10.98;3.78;;;;;;;13.75;67.30;100403.63;6129946;23;20072;-83
2022/06/04 03:23:01;;;;;;;6.15;3.90;;;;;;;14.09;67.03;100443.28;6106930;23;20100;-82
2022/06/04 03:25:28;;;;;;;7.35;3.92;;;;;;;13.82;66.68;100384.34;6156333;23;20017;-82
2022/06/04 03:27:54;;;;;;;6.97;3.50;;;;;;;14.25;66.44;100435.22;6156898;23;20014;-80
2022/06/04 03:30:20;;;;;;;6.03;3.47;;;;;;;14.23;65.79;100434.41;6130272;23;20013;-82
2022/06/04 03:32:46;;;;;;;6.50;3.67;;;;;;;14.24;65.68;100417.78;6130566;23;20021;-82
2022/06/04 03:35:14;;;;;;;11.73;3.53;;;;;;;14.52;65.48;100441.84;6130204;23;20045;-81
2022/06/04 03:37:40;;;;;;;7.30;3.72;;;;;;;14.39;65.44;100396.66;6129778;23;20113;-82
2022/06/04 03:40:07;;;;;;;7.70;3.47;;;;;;;14.77;65.23;100436.25;6158213;23;20475;-82
2022/06/04 03:42:33;;;;;;;11.68;3.25;;;;;;;14.91;64.94;100441.25;6159337;23;20021;-82
2022/06/04 03:45:00;;;;;;;5.60;3.50;;;;;;;14.84;64.81;100402.97;6135698;23;20071;-82
2022/06/04 03:47:26;;;;;;;4.30;3.25;;;;;;;15.34;64.36;100455.38;6139864;23;20013;-83
2022/06/04 03:49:53;;;;;;;8.13;3.22;;;;;;;15.45;64.26;100448.16;6138610;23;20036;-81
2022/06/04 03:52:20;;;;;;;11.48;3.88;;;;;;;15.49;63.44;100441.13;6156960;23;20037;-82
2022/06/04 03:54:55;;;;;;;8.30;3.58;;;;;;;15.44;63.57;100401.88;6163940;23;20436;-83
2022/06/04 03:57:37;;;;;;;6.40;3.75;;;;;;;15.86;62.88;100440.41;6138201;23;20025;-80
2022/06/04 04:00:10;;;;;;;6.18;3.35;;;;;;;15.94;62.63;100435.88;6138921;23;20467;-82
2022/06/04 04:02:42;;;;;;;6.60;3.72;;;;;;;16.02;62.47;100437.44;6137801;23;20112;-82
2022/06/04 04:05:11;;;;;;;10.27;4.20;;;;;;;16.04;62.01;100419.91;6140762;23;20128;-81
2022/06/04 04:07:37;;;;;;;5.22;3.30;;;;;;;15.93;61.89;100394.78;6119454;23;20029;-82
2022/06/04 04:10:06;;;;;;;10.25;3.60;;;;;;;16.27;61.88;100441.28;6141930;23;20246;-81
2022/06/04 04:12:32;;;;;;;5.18;3.67;;;;;;;16.29;61.67;100427.25;6117522;23;20025;-80
2022/06/04 04:14:58;;;;;;;9.30;4.18;;;;;;;16.46;61.50;100440.00;6135242;23;20021;-83
2022/06/04 04:17:24;;;;;;;9.57;4.30;;;;;;;16.62;61.07;100453.66;6157612;23;20083;-80
2022/06/04 04:19:51;;;;;;;13.18;4.18;;;;;;;16.31;60.89;100386.94;6166696;23;20024;-81
2022/06/04 04:22:18;;;;;;;8.25;3.67;;;;;;;16.48;60.35;100404.06;6146601;23;20018;-82
2022/06/04 04:24:45;;;;;;;6.00;3.70;;;;;;;16.80;60.44;100452.31;6153874;23;20016;-81
2022/06/04 04:27:11;;;;;;;8.38;4.50;;;;;;;16.69;60.26;100419.31;6131136;23;20033;-82
2022/06/04 04:29:47;;;;;;;7.65;3.85;;;;;;;16.47;59.57;100366.41;6176978;23;20328;-81
2022/06/04 04:32:13;;;;;;;7.85;3.92;;;;;;;16.92;59.66;100430.13;6134038;23;20072;-82
2022/06/04 04:34:39;;;;;;;6.75;3.78;;;;;;;17.06;59.12;100433.31;6139978;23;20024;-81
2022/06/04 04:37:48;;;;;;;;;;;;;;;;;;;;;
2022/06/04 04:40:28;;;;;;;5.95;3.60;;;;;;;17.17;58.80;100406.75;6144696;23;20176;-81
2022/06/04 04:42:54;;;;;;;6.50;3.75;;;;;;;16.94;58.19;100344.22;6132451;23;20391;-83
2022/06/04 04:45:22;;;;;;;6.05;3.45;;;;;;;17.44;57.93;100413.03;6107682;23;20503;-81
2022/06/04 04:47:50;;;;;;;10.73;3.80;;;;;;;17.77;57.51;100435.78;6107844;23;20024;-82
2022/06/04 04:50:29;;;;;;;7.60;4.38;;;;;;;17.97;57.56;100439.63;6131598;23;20035;-81
2022/06/04 04:52:57;;;;;;;6.93;3.75;;;;;;;18.10;57.30;100446.25;6132244;23;20013;-81
2022/06/04 04:55:25;;;;;;;11.15;6.97;;;;;;;18.09;57.03;100422.63;6131179;23;20019;-81
2022/06/04 04:57:51;;;;;;;10.27;6.30;;;;;;;18.30;56.88;100426.38;6105804;23;20017;-82
2022/06/04 05:00:18;;;;;;;12.63;4.00;;;;;;;18.56;56.74;100428.19;6106547;23;20352;-82
2022/06/04 05:02:44;;;;;;;4.22;3.10;;;;;;;18.89;56.14;100450.84;6154393;23;20140;-81
2022/06/04 05:05:11;;;;;;;7.18;4.40;;;;;;;19.09;56.14;100443.16;6107397;23;20111;-81
2022/06/04 05:07:38;;;;;;;5.43;2.90;;;;;;;19.22;55.20;100443.59;6106438;23;20079;-83
2022/06/04 05:10:06;;;;;;;6.50;3.20;;;;;;;19.06;55.07;100426.59;6130701;23;20096;-82
2022/06/04 05:12:33;;;;;;;5.15;3.35;;;;;;;19.19;55.01;100443.72;6133230;23;20017;-83
2022/06/04 05:14:59;;;;;;;6.20;3.10;;;;;;;19.26;54.84;100447.00;6093117;23;20052;-82
2022/06/04 05:17:25;;;;;;;7.00;3.15;;;;;;;19.22;54.44;100435.69;6139659;23;20018;-82
2022/06/04 05:19:51;;;;;;;6.95;3.38;;;;;;;19.32;54.35;100430.06;6162797;23;20032;-83
2022/06/04 05:22:17;;;;;;;5.43;3.38;;;;;;;19.38;53.91;100420.19;6136853;23;20018;-80
2022/06/04 05:24:44;;;;;;;5.00;2.85;;;;;;;19.68;53.99;100437.59;6135886;23;20021;-83
2022/06/04 05:27:10;;;;;;;5.55;2.42;;;;;;;19.51;53.19;100390.72;6134886;23;20041;-81
2022/06/04 05:29:39;;;;;;;4.38;2.40;;;;;;;19.83;52.83;100447.59;6158323;23;20021;-83
2022/06/04 05:32:09;;;;;;;3.67;2.55;;;;;;;19.47;52.11;100397.88;6157848;23;20022;-82
2022/06/04 05:34:36;;;;;;;4.85;2.30;;;;;;;19.69;52.54;100452.53;6130298;23;20127;-82
2022/06/04 05:37:04;;;;;;;9.75;2.80;;;;;;;19.70;51.97;100441.91;6130385;23;20091;-81
2022/06/04 05:39:31;;;;;;;5.55;2.70;;;;;;;19.72;51.52;100423.38;6131140;23;20456;-82
2022/06/04 05:41:59;;;;;;;6.22;3.00;;;;;;;19.64;51.61;100399.88;6157534;23;20017;-81
2022/06/04 05:44:34;;;;;;;6.82;3.05;;;;;;;19.60;51.74;100344.63;6107674;23;20023;-85
2022/06/04 05:47:00;;;;;;;7.35;3.00;;;;;;;20.96;52.42;100442.34;6135776;23;20004;-82
2022/06/04 05:50:02;;;;;;;7.13;2.95;;;;;;;23.20;52.08;100427.59;6138227;23;20017;-85
2022/06/04 05:53:12;;;;;;;6.97;2.70;;;;;;;25.33;48.18;100421.16;6134317;23;20499;-82
2022/06/04 05:55:38;;;;;;;6.40;2.90;;;;;;;26.96;45.09;100352.09;6129152;23;20455;-81
2022/06/04 05:58:04;;;;;;;4.15;2.55;;;;;;;28.92;41.93;100411.13;6129698;23;20333;-84
2022/06/04 06:00:40;;;;;;;3.72;2.53;;;;;;;30.25;39.13;100359.56;6158509;23;20014;-84
2022/06/04 06:03:20;;;;;;;10.00;2.28;;;;;;;31.89;36.04;100326.69;6164223;23;20463;-83
2022/06/04 06:05:47;;;;;;;8.73;2.17;;;;;;;32.99;33.68;100375.81;6140661;23;20018;-83
2022/06/04 06:08:13;;;;;;;6.35;2.22;;;;;;;34.00;32.46;100393.16;6111129;23;20116;-80
2022/06/04 06:10:49;;;;;;;4.57;1.88;;;;;;;34.93;30.83;100358.69;6166492;23;20013;-82
2022/06/04 06:13:20;;;;;;;4.25;1.90;;;;;;;35.45;29.96;100355.13;6114947;23;20021;-82
2022/06/04 06:15:46;;;;;;;3.42;1.58;;;;;;;35.88;28.65;100380.28;6135404;23;20025;-84
2022/06/04 06:18:31;;;;;;;3.35;1.60;;;;;;;35.98;27.89;100347.66;6162111;23;20029;-84
2022/06/04 06:20:57;;;;;;;2.85;1.23;;;;;;;36.52;26.98;100313.00;6135485;23;20017;-83
2022/06/04 06:23:23;;;;;;;2.55;1.42;;;;;;;37.68;26.13;100378.59;6139199;23;20021;-82
2022/06/04 06:29:30;;;;;;;1.77;1.10;;;;;;;39.35;25.02;100313.66;6155061;23;20022;-85
2022/06/04 06:32:24;;;;;;;;;;;;;;;;;;;;;
2022/06/04 06:35:08;;;;;;;2.95;1.52;;;;;;;40.71;22.83;100301.13;6161873;23;20017;-83
2022/06/04 06:41:21;;;;;;;4.40;1.83;;;;;;;42.31;22.62;100321.84;6174535;23;20036;-85
2022/06/04 06:43:51;;;;;;;5.78;1.70;;;;;;;42.40;21.63;100309.66;6143734;23;20068;-82
2022/06/04 06:46:47;;;;;;;5.07;1.90;;;;;;;42.84;20.31;100369.34;6142701;23;20025;-85
2022/06/04 06:49:23;;;;;;;3.53;1.77;;;;;;;43.35;19.70;100356.81;6148751;23;20025;-85
2022/06/04 06:51:59;;;;;;;4.00;1.85;;;;;;;43.19;18.40;100360.84;6149328;23;20017;-84
2022/06/04 06:54:33;;;;;;;6.47;2.58;;;;;;;42.76;18.42;100362.19;6173773;23;20017;-84
2022/06/04 06:57:16;;;;;;;4.47;1.73;;;;;;;42.33;18.28;100325.19;6153877;23;20021;-84
2022/06/04 06:59:55;;;;;;;5.20;1.98;;;;;;;42.82;18.27;100336.75;6153906;23;20037;-85
2022/06/04 07:02:34;;;;;;;4.95;1.85;;;;;;;43.26;18.42;100353.44;6128360;23;20045;-85
2022/06/04 07:05:13;;;;;;;4.50;1.83;;;;;;;42.11;18.07;100310.91;6150877;23;20037;-86
2022/06/04 07:07:42;;;;;;;9.07;2.60;;;;;;;42.85;17.69;100339.06;6140591;23;20017;-82
2022/06/04 07:10:49;;;;;;;2.92;1.80;;;;;;;43.68;17.68;100331.16;6139280;23;20335;-84
2022/06/04 07:13:24;;;;;;;2.30;2.00;;;;;;;43.77;17.35;100309.81;6156746;23;20017;-85
2022/06/04 07:17:14;;;;;;;3.90;2.50;;;;;;;44.82;16.93;100359.56;6136996;23;20017;-86
2022/06/04 07:20:11;;;;;;;4.13;2.20;;;;;;;43.42;16.81;100354.03;6107149;23;20018;-85
2022/06/04 07:22:46;;;;;;;5.03;2.03;;;;;;;43.02;17.65;100292.91;6126499;23;20049;-83
2022/06/04 07:25:55;;;;;;;9.32;2.17;;;;;;;44.03;17.14;100286.03;6127570;23;20108;-86
2022/06/04 07:28:36;;;;;;;4.20;1.48;;;;;;;45.53;16.47;100356.44;6081759;23;20437;-85
2022/06/04 07:32:01;;;;;;;4.32;2.80;;;;;;;46.38;16.87;100326.19;6131899;23;20029;-85
2022/06/04 07:34:36;;;;;;;8.10;4.80;;;;;;;46.93;15.87;100355.25;6113413;23;20038;-86
2022/06/04 07:37:05;;;;;;;9.52;6.85;;;;;;;45.82;16.32;100353.94;6109018;23;20014;-84
2022/06/04 07:39:33;;;;;;;6.95;6.00;;;;;;;45.86;15.65;100309.25;6130617;23;20376;-82
2022/06/04 07:42:11;;;;;;;4.80;3.92;;;;;;;46.37;15.17;100283.25;6128748;23;20061;-86
2022/06/04 07:45:00;;;;;;;7.45;4.45;;;;;;;43.77;16.74;100318.03;6106977;23;20483;-85
2022/06/04 07:47:30;;;;;;;3.50;3.20;;;;;;;43.71;17.02;100322.50;6131997;23;20025;-84
2022/06/04 07:49:57;;;;;;;4.10;2.10;;;;;;;44.49;15.51;100305.88;6130360;23;20037;-85
2022/06/04 07:52:23;;;;;;;7.18;6.47;;;;;;;42.65;15.75;100300.78;6133985;23;20279;-86
2022/06/04 07:54:56;;;;;;;8.55;7.38;;;;;;;41.77;17.33;100277.25;6111472;23;20029;-86
2022/06/04 07:57:45;;;;;;;2.72;2.05;;;;;;;42.09;17.78;100307.53;6147955;23;20018;-86
2022/06/04 08:00:19;;;;;;;8.55;7.68;;;;;;;43.86;16.89;100297.53;6108725;23;20459;-86
2022/06/04 08:02:46;;;;;;;3.28;2.80;;;;;;;43.73;15.64;100311.31;6124003;23;20150;-86
2022/06/04 08:06:35;;;;;;;4.95;4.28;;;;;;;43.57;15.96;100327.19;6125635;23;20018;-85
2022/06/04 08:09:01;;;;;;;4.10;3.70;;;;;;;45.25;15.53;100268.09;6128568;23;20171;-85
2022/06/04 08:11:32;;;;;;;6.57;4.65;;;;;;;46.88;15.04;100328.44;6127042;23;20022;-83
2022/06/04 08:14:05;;;;;;;3.50;2.42;;;;;;;46.79;13.86;100293.28;6120403;23;20033;-85
2022/06/04 08:16:35;;;;;;;3.30;3.00;;;;;;;45.95;14.66;100248.47;6108168;23;20032;-85
2022/06/04 08:19:37;;;;;;;6.32;3.28;;;;;;;46.48;14.77;100334.72;6149969;23;20026;-82
2022/06/04 08:22:05;;;;;;;7.30;2.80;;;;;;;46.68;14.58;100319.72;6133367;23;20060;-82
2022/06/04 08:24:32;;;;;;;4.60;4.20;;;;;;;45.93;14.52;100264.34;6133649;23;20026;-82
2022/06/04 08:27:06;;;;;;;4.22;3.45;;;;;;;47.37;14.24;100305.22;6130784;23;20025;-83
2022/06/04 08:29:37;;;;;;;7.32;5.32;;;;;;;47.74;13.34;100295.72;6127644;23;20022;-81
2022/06/04 08:32:04;;;;;;;4.10;3.55;;;;;;;47.16;12.96;100303.94;6127017;23;20018;-80
2022/06/04 08:34:31;;;;;;;3.05;2.50;;;;;;;45.99;13.15;100323.88;6101538;23;20096;-82
2022/06/04 08:37:50;;;;;;;5.35;4.00;;;;;;;42.81;14.37;100320.56;6081242;23;20014;-77
2022/06/04 08:40:38;;;;;;;4.38;3.47;;;;;;;40.25;16.65;100259.72;6099614;23;20028;-82
2022/06/04 08:43:39;;;;;;;3.97;1.85;;;;;;;41.07;16.53;100316.44;6125726;23;20022;-79
2022/06/04 08:46:29;;;;;;;6.88;2.13;;;;;;;41.78;16.15;100289.84;6043368;23;20114;-82
2022/06/04 08:49:01;;;;;;;2.42;2.13;;;;;;;41.01;15.95;100265.44;6089579;23;20017;-85
2022/06/04 08:51:30;;;;;;;3.03;2.22;;;;;;;40.60;16.77;100258.91;6099675;23;20017;-82
2022/06/04 08:57:32;;;;;;;6.18;3.50;;;;;;;39.62;17.23;100250.31;6076581;23;20021;-79
2022/06/04 08:59:35;;;;;;;6.50;4.53;;;;;;;41.29;17.52;100292.63;6126024;23;20025;-79
2022/06/04 09:02:09;;;;;;;;;;;;;;;42.54;16.06;100280.41;6129083;23;20018;-80
2022/06/04 09:05:02;;;;;;;2.42;1.75;;;;;;;43.17;15.94;100264.44;6106587;23;19913;-82
2022/06/04 09:07:37;;;;;;;4.85;4.05;;;;;;;44.49;15.28;100281.22;6125229;23;20471;-79
2022/06/04 09:10:18;;;;;;;3.55;1.88;;;;;;;44.80;14.32;100272.00;6129699;23;20022;-88
2022/06/04 09:13:23;;;;;;;4.90;4.15;;;;;;;45.52;13.77;100280.59;6126840;23;20037;-82
2022/06/04 09:15:53;;;;;;;8.85;2.22;;;;;;;46.01;13.86;100275.00;6154173;23;20355;-78
2022/06/04 09:18:27;;;;;;;;;;;;;;;45.90;13.90;100271.16;6149127;23;20024;-82
2022/06/04 09:20:56;;;;;;;4.25;1.77;;;;;;;45.17;13.75;100270.31;6124990;23;19913;-80
2022/06/04 09:23:35;;;;;;;4.53;2.45;;;;;;;44.81;13.66;100261.88;6123496;23;20044;-79
2022/06/04 09:26:04;;;;;;;3.72;2.63;;;;;;;42.90;14.08;100253.59;6123058;23;20034;-78
2022/06/04 09:28:33;;;;;;;7.03;5.03;;;;;;;42.90;15.04;100253.59;6122880;23;20471;-81
2022/06/04 09:31:29;;;;;;;8.77;3.73;;;;;;;42.98;15.02;100256.09;6122611;23;20372;-87
2022/06/04 09:34:09;;;;;;;5.45;2.38;;;;;;;42.00;15.77;100242.19;6125779;23;20041;-82
2022/06/04 09:36:46;;;;;;;16.70;6.78;;;;;;;40.47;16.34;100219.63;6105483;23;20018;-81
2022/06/04 09:39:23;;;;;;;6.88;3.25;;;;;;;39.52;16.61;100260.69;6125000;23;20026;-79
2022/06/04 09:41:52;;;;;;;15.45;5.30;;;;;;;38.69;17.44;100250.84;6124547;23;20014;-79
2022/06/04 09:44:19;;;;;;;5.85;2.80;;;;;;;37.94;17.35;100245.28;6125392;23;20024;-79
2022/06/04 09:46:48;;;;;;;6.55;2.60;;;;;;;36.85;17.69;100256.03;6125117;23;20025;-78
2022/06/04 09:49:35;;;;;;;9.75;3.17;;;;;;;35.54;18.92;100255.91;6126855;23;20448;-81
2022/06/04 09:52:20;;;;;;;8.65;3.33;;;;;;;34.39;19.60;100267.78;6153056;23;20010;-80
2022/06/04 09:54:54;;;;;;;13.68;3.53;;;;;;;33.48;20.19;100272.34;6128672;23;20076;-83
2022/06/04 09:57:32;;;;;;;5.35;2.60;;;;;;;32.30;21.19;100243.97;6127482;23;20024;-83
2022/06/04 10:00:00;;;;;;;5.88;3.42;;;;;;;32.70;22.13;100258.19;6126462;23;20468;-83
2022/06/04 10:02:27;;;;;;;4.38;2.72;;;;;;;34.57;21.07;100245.31;6148548;23;20105;-81
2022/06/04 10:05:06;;;;;;;12.07;7.30;;;;;;;35.25;19.98;100240.91;6127497;23;20041;-79
2022/06/04 10:07:38;;;;;;;6.32;2.90;;;;;;;33.52;19.83;100235.16;6108224;23;20021;-79
2022/06/04 10:10:21;;;;;;;3.10;2.75;;;;;;;31.96;20.56;100257.88;6109381;23;20028;-84
2022/06/04 10:15:47;;;;;;;9.00;3.65;;;;;;;33.59;21.42;100250.56;6134844;23;20052;-81
2022/06/04 10:18:15;;;;;;;2.38;1.80;;;;;;;35.24;20.17;100241.94;6156423;23;20380;-86
2022/06/04 10:20:54;;;;;;;5.50;1.75;;;;;;;35.25;19.55;100160.66;6132696;23;20052;-84
2022/06/04 10:23:20;;;;;;;3.47;2.10;;;;;;;35.95;18.49;100242.41;6134007;23;20018;-82
2022/06/04 10:26:02;;;;;;;2.65;1.80;;;;;;;34.54;18.72;100233.81;6130767;23;20022;-83
2022/06/04 10:28:55;;;;;;;3.30;2.00;;;;;;;33.17;19.79;100224.13;6129978;23;20368;-82
2022/06/04 10:31:31;;;;;;;3.47;2.13;;;;;;;31.92;20.57;100165.00;6131849;23;20082;-80
2022/06/04 10:34:33;;;;;;;4.40;2.35;;;;;;;31.44;21.42;100204.31;6111229;23;20018;-82
2022/06/04 10:37:11;;;;;;;5.25;2.72;;;;;;;31.17;22.16;100234.53;6133372;23;20102;-79
2022/06/04 10:40:11;;;;;;;5.90;3.30;;;;;;;30.87;23.26;100229.03;6128304;23;20018;-80
2022/06/04 10:42:37;;;;;;;7.45;4.00;;;;;;;30.68;23.41;100227.09;6131559;23;20018;-81
2022/06/04 10:45:34;;;;;;;6.25;4.78;;;;;;;30.39;23.55;100211.66;6128364;23;20108;-84
2022/06/04 10:48:11;;;;;;;8.15;5.20;;;;;;;30.08;23.77;100197.34;6128014;23;20014;-79
2022/06/04 10:54:08;;;;;;;3.58;2.00;;;;;;;29.58;24.61;100228.25;6129349;23;20017;-81
2022/06/04 10:56:44;;;;;;;4.53;2.88;;;;;;;29.46;24.77;100225.56;6153973;23;20021;-81
2022/06/04 10:59:57;;;;;;;8.40;2.55;;;;;;;28.99;24.94;100228.44;6150439;23;20022;-81
2022/06/04 11:02:32;;;;;;;3.97;3.50;;;;;;;28.75;25.46;100239.28;6124009;23;20174;-86
2022/06/04 11:05:04;;;;;;;15.82;13.18;;;;;;;28.77;25.75;100237.34;6126840;23;20081;-79
2022/06/04 11:07:48;;;;;;;12.65;10.10;;;;;;;28.79;25.60;100235.38;6150111;23;20040;-83
2022/06/04 11:10:31;;;;;;;12.10;9.73;;;;;;;28.90;25.75;100215.78;6126323;23;20028;-80
2022/06/04 11:13:23;;;;;;;17.77;10.23;;;;;;;28.97;26.05;100232.22;6125697;23;20022;-80
2022/06/04 11:15:53;;;;;;;12.38;8.45;;;;;;;28.90;25.67;100241.69;6102893;23;20029;-83
2022/06/04 11:18:28;;;;;;;11.65;6.03;;;;;;;28.79;26.38;100230.03;6125103;23;20025;-80
2022/06/04 11:21:01;;;;;;;11.05;7.63;;;;;;;28.54;26.52;100241.75;6125715;23;20038;-80
2022/06/04 11:23:55;;;;;;;9.50;6.70;;;;;;;28.20;27.02;100244.38;6127279;23;20464;-78
2022/06/04 11:26:42;;;;;;;22.38;4.65;;;;;;;27.77;27.12;100245.75;6127139;23;20097;-78
2022/06/04 11:29:11;;;;;;;3.75;2.83;;;;;;;27.38;27.38;100226.31;6126816;23;20029;-81
2022/06/04 11:32:02;;;;;;;8.40;4.30;;;;;;;27.28;27.07;100232.31;6128669;23;20024;-80
2022/06/04 11:35:05;;;;;;;8.45;5.63;;;;;;;27.03;27.56;100242.09;6127916;23;20024;-82
2022/06/04 11:37:40;;;;;;;4.35;3.65;;;;;;;26.81;28.18;100239.25;6127982;23;20038;-80
2022/06/04 11:40:31;;;;;;;4.78;3.22;;;;;;;26.52;28.09;100244.75;6102468;23;20018;-82
2022/06/04 11:43:29;;;;;;;3.97;3.28;;;;;;;26.23;28.47;100234.28;6137495;23;20018;-78
2022/06/04 11:46:32;;;;;;;7.32;4.45;;;;;;;26.17;29.70;100230.22;6145786;23;20021;-79
2022/06/04 11:49:06;;;;;;;9.07;4.68;;;;;;;26.17;29.66;100227.53;6142213;23;20045;-81
2022/06/04 11:51:56;;;;;;;10.43;4.55;;;;;;;26.41;29.83;100237.50;6144527;23;20053;-82
2022/06/04 11:54:40;;;;;;;8.55;4.03;;;;;;;26.50;29.84;100234.19;6127146;23;20025;-81
2022/06/04 11:57:37;;;;;;;7.25;3.55;;;;;;;26.56;29.16;100216.91;6125636;23;20021;-81
2022/06/04 12:00:29;;;;;;;3.20;2.90;;;;;;;26.74;29.27;100223.63;6082690;23;20459;-79
2022/06/04 12:03:00;;;;;;;4.63;2.78;;;;;;;26.73;29.11;100221.94;6126829;23;20081;-82
2022/06/04 12:05:38;;;;;;;4.22;3.13;;;;;;;26.67;29.96;100222.34;6151257;23;20017;-81
2022/06/04 12:08:08;;;;;;;4.95;2.83;;;;;;;26.48;29.55;100173.91;6126956;23;20025;-81
2022/06/04 12:11:01;;;;;;;8.45;3.38;;;;;;;26.82;29.66;100216.91;6125326;23;20040;-83
2022/06/04 12:13:56;;;;;;;6.63;2.20;;;;;;;26.40;29.19;100204.63;6122768;23;20041;-77
2022/06/04 12:16:34;;;;;;;5.32;2.95;;;;;;;26.01;29.86;100217.03;6123086;23;20021;-80
2022/06/04 12:25:16;;;;;;;7.85;2.50;;;;;;;25.56;29.96;100217.31;6127701;23;20025;-83
2022/06/04 12:28:03;;;;;;;5.72;3.08;;;;;;;25.22;30.36;100195.50;6128891;23;20021;-80
2022/06/04 12:30:46;;;;;;;27.10;20.15;;;;;;;25.22;30.43;100207.00;6157753;23;20028;-81
2022/06/04 12:33:28;;;;;;;7.32;5.40;;;;;;;25.09;31.05;100201.63;6132830;23;20087;-82
2022/06/04 12:35:57;;;;;;;4.45;2.20;;;;;;;24.79;31.07;100207.91;6128840;23;20459;-81
2022/06/04 12:38:25;;;;;;;6.78;5.20;;;;;;;24.51;30.91;100198.06;6103293;23;20490;-82
2022/06/04 12:40:52;;;;;;;15.27;10.52;;;;;;;24.23;30.62;100154.56;6103181;23;20029;-82
2022/06/04 12:43:30;;;;;;;8.45;5.22;;;;;;;24.50;31.14;100183.06;6127630;23;20018;-82